sensor_id;sensor_type;location;lat;lon;timestamp;pressure;altitude;pressure_sealevel;temperature;humidity
54038;BME280;39954;48.844;9.726;2023-04-06T00:01:09;96315.50;;;-3.43;100.00
54038;BME280;39954;48.844;9.726;2023-04-06T00:02:18;96326.50;;;-3.43;100.00
54038;BME280;39954;48.844;9.726;2023-04-06T00:03:34;96317.19;;;-3.42;100.00
54038;BME280;39954;48.844;9.726;2023-04-06T00:04:41;96315.47;;;-3.45;100.00
54038;BME280;39954;48.844;9.726;2023-04-06T00:05:49;96316.31;;;-3.49;100.00
54038;BME280;39954;48.844;9.726;2023-04-06T00:07:03;96312.09;;;-3.51;100.00
54038;BME280;39954;48.844;9.726;2023-04-06T00:08:12;96303.59;;;-3.56;100.00
54038;BME280;39954;48.844;9.726;2023-04-06T00:09:30;96308.69;;;-3.61;100.00
54038;BME280;39954;48.844;9.726;2023-04-06T00:10:37;96307.81;;;-3.65;100.00
54038;BME280;39954;48.844;9.726;2023-04-06T00:11:55;96304.44;;;-3.65;100.00
54038;BME280;39954;48.844;9.726;2023-04-06T00:13:09;96308.69;;;-3.58;100.00
54038;BME280;39954;48.844;9.726;2023-04-06T00:14:35;96301.91;;;-3.59;100.00
54038;BME280;39954;48.844;9.726;2023-04-06T00:15:45;96301.91;;;-3.61;100.00
54038;BME280;39954;48.844;9.726;2023-04-06T00:16:58;96299.34;;;-3.65;100.00
54038;BME280;39954;48.844;9.726;2023-04-06T00:18:09;96300.22;;;-3.66;100.00
54038;BME280;39954;48.844;9.726;2023-04-06T00:19:16;96301.91;;;-3.67;100.00
54038;BME280;39954;48.844;9.726;2023-04-06T00:20:26;96303.56;;;-3.67;100.00
54038;BME280;39954;48.844;9.726;2023-04-06T00:21:40;96295.13;;;-3.71;100.00
54038;BME280;39954;48.844;9.726;2023-04-06T00:22:52;96301.03;;;-3.70;100.00
54038;BME280;39954;48.844;9.726;2023-04-06T00:24:04;96300.22;;;-3.69;100.00
54038;BME280;39954;48.844;9.726;2023-04-06T00:25:19;96301.91;;;-3.68;100.00
54038;BME280;39954;48.844;9.726;2023-04-06T00:26:31;96303.59;;;-3.72;100.00
54038;BME280;39954;48.844;9.726;2023-04-06T00:27:42;96299.34;;;-3.71;100.00
54038;BME280;39954;48.844;9.726;2023-04-06T00:28:57;96303.56;;;-3.70;100.00
54038;BME280;39954;48.844;9.726;2023-04-06T00:30:13;96299.34;;;-3.71;100.00
54038;BME280;39954;48.844;9.726;2023-04-06T00:31:24;96297.66;;;-3.72;100.00
54038;BME280;39954;48.844;9.726;2023-04-06T00:32:28;96298.50;;;-3.72;100.00
54038;BME280;39954;48.844;9.726;2023-04-06T00:33:39;96303.59;;;-3.72;100.00
54038;BME280;39954;48.844;9.726;2023-04-06T00:34:51;96299.34;;;-3.73;100.00
54038;BME280;39954;48.844;9.726;2023-04-06T00:36:10;96300.19;;;-3.77;100.00
54038;BME280;39954;48.844;9.726;2023-04-06T00:37:38;96307.78;;;-3.83;100.00
54038;BME280;39954;48.844;9.726;2023-04-06T00:38:51;96305.25;;;-3.86;100.00
54038;BME280;39954;48.844;9.726;2023-04-06T00:39:58;96301.84;;;-3.87;100.00
54038;BME280;39954;48.844;9.726;2023-04-06T00:41:06;96299.28;;;-3.87;100.00
54038;BME280;39954;48.844;9.726;2023-04-06T00:42:13;96295.94;;;-3.89;100.00
54038;BME280;39954;48.844;9.726;2023-04-06T00:43:24;96295.91;;;-3.92;100.00
54038;BME280;39954;48.844;9.726;2023-04-06T00:44:29;96297.59;;;-3.91;100.00
54038;BME280;39954;48.844;9.726;2023-04-06T00:45:39;96292.53;;;-3.94;100.00
54038;BME280;39954;48.844;9.726;2023-04-06T00:46:49;96302.66;;;-3.97;100.00
54038;BME280;39954;48.844;9.726;2023-04-06T00:48:03;96293.34;;;-4.02;100.00
54038;BME280;39954;48.844;9.726;2023-04-06T00:49:12;96295.00;;;-4.08;100.00
54038;BME280;39954;48.844;9.726;2023-04-06T00:50:27;96293.28;;;-4.12;100.00
54038;BME280;39954;48.844;9.726;2023-04-06T00:51:34;96289.91;;;-4.12;100.00
54038;BME280;39954;48.844;9.726;2023-04-06T00:52:41;96284.81;;;-4.15;100.00
54038;BME280;39954;48.844;9.726;2023-04-06T00:53:50;96283.97;;;-4.17;100.00
54038;BME280;39954;48.844;9.726;2023-04-06T00:55:00;96286.50;;;-4.20;100.00
54038;BME280;39954;48.844;9.726;2023-04-06T00:56:08;96282.28;;;-4.21;100.00
54038;BME280;39954;48.844;9.726;2023-04-06T00:57:18;96285.66;;;-4.22;100.00
54038;BME280;39954;48.844;9.726;2023-04-06T00:58:24;96285.66;;;-4.22;100.00
54038;BME280;39954;48.844;9.726;2023-04-06T00:59:32;96278.91;;;-4.22;100.00
54038;BME280;39954;48.844;9.726;2023-04-06T01:00:43;96281.44;;;-4.19;100.00
54038;BME280;39954;48.844;9.726;2023-04-06T01:01:53;96286.53;;;-4.14;100.00
54038;BME280;39954;48.844;9.726;2023-04-06T01:03:02;96283.16;;;-4.13;100.00
54038;BME280;39954;48.844;9.726;2023-04-06T01:04:16;96284.00;;;-4.11;100.00
54038;BME280;39954;48.844;9.726;2023-04-06T01:05:32;96282.28;;;-4.12;100.00
54038;BME280;39954;48.844;9.726;2023-04-06T01:08:06;96282.28;;;-4.15;100.00
54038;BME280;39954;48.844;9.726;2023-04-06T01:09:16;96283.13;;;-4.15;100.00
54038;BME280;39954;48.844;9.726;2023-04-06T01:10:24;96280.59;;;-4.16;100.00
54038;BME280;39954;48.844;9.726;2023-04-06T01:11:36;96278.88;;;-4.17;100.00
54038;BME280;39954;48.844;9.726;2023-04-06T01:12:44;96284.00;;;-4.11;100.00
54038;BME280;39954;48.844;9.726;2023-04-06T01:13:59;96278.09;;;-4.10;100.00
54038;BME280;39954;48.844;9.726;2023-04-06T01:15:08;96282.28;;;-4.12;100.00
54038;BME280;39954;48.844;9.726;2023-04-06T01:16:21;96278.94;;;-4.11;100.00
54038;BME280;39954;48.844;9.726;2023-04-06T01:17:35;96276.41;;;-4.08;100.00
54038;BME280;39954;48.844;9.726;2023-04-06T01:18:46;96276.41;;;-4.08;100.00
54038;BME280;39954;48.844;9.726;2023-04-06T01:19:53;96278.09;;;-4.06;100.00
54038;BME280;39954;48.844;9.726;2023-04-06T01:21:12;96273.00;;;-4.07;100.00
54038;BME280;39954;48.844;9.726;2023-04-06T01:22:31;96273.88;;;-4.05;100.00
54038;BME280;39954;48.844;9.726;2023-04-06T01:23:50;96269.63;;;-4.05;100.00
54038;BME280;39954;48.844;9.726;2023-04-06T01:24:59;96273.84;;;-4.03;100.00
54038;BME280;39954;48.844;9.726;2023-04-06T01:26:14;96275.56;;;-4.04;100.00
54038;BME280;39954;48.844;9.726;2023-04-06T01:27:22;96273.88;;;-4.05;100.00
54038;BME280;39954;48.844;9.726;2023-04-06T01:28:30;96269.63;;;-4.05;100.00
54038;BME280;39954;48.844;9.726;2023-04-06T01:29:41;96272.19;;;-4.06;100.00
54038;BME280;39954;48.844;9.726;2023-04-06T01:30:50;96267.13;;;-4.06;100.00
54038;BME280;39954;48.844;9.726;2023-04-06T01:32:00;96268.78;;;-4.10;100.00
54038;BME280;39954;48.844;9.726;2023-04-06T01:33:21;96266.25;;;-4.11;100.00
54038;BME280;39954;48.844;9.726;2023-04-06T01:34:45;96260.31;;;-4.10;100.00
54038;BME280;39954;48.844;9.726;2023-04-06T01:35:53;96258.63;;;-4.10;100.00
54038;BME280;39954;48.844;9.726;2023-04-06T01:36:57;96260.31;;;-4.10;100.00
54038;BME280;39954;48.844;9.726;2023-04-06T01:38:12;96256.94;;;-4.11;100.00
54038;BME280;39954;48.844;9.726;2023-04-06T01:39:19;96255.22;;;-4.16;100.00
54038;BME280;39954;48.844;9.726;2023-04-06T01:40:32;96243.41;;;-4.14;100.00
54038;BME280;39954;48.844;9.726;2023-04-06T01:41:38;96250.97;;;-4.17;100.00
54038;BME280;39954;48.844;9.726;2023-04-06T01:42:52;96256.91;;;-4.18;100.00
54038;BME280;39954;48.844;9.726;2023-04-06T01:44:01;96249.28;;;-4.21;100.00
54038;BME280;39954;48.844;9.726;2023-04-06T01:45:13;96248.44;;;-4.20;100.00
54038;BME280;39954;48.844;9.726;2023-04-06T01:46:23;96247.59;;;-4.21;100.00
54038;BME280;39954;48.844;9.726;2023-04-06T01:47:28;96251.81;;;-4.21;100.00
54038;BME280;39954;48.844;9.726;2023-04-06T01:48:35;96252.66;;;-4.24;100.00
54038;BME280;39954;48.844;9.726;2023-04-06T01:49:43;96248.44;;;-4.25;100.00
54038;BME280;39954;48.844;9.726;2023-04-06T01:51:07;96245.91;;;-4.25;100.00
54038;BME280;39954;48.844;9.726;2023-04-06T01:52:19;96250.13;;;-4.25;100.00
54038;BME280;39954;48.844;9.726;2023-04-06T01:53:40;96246.72;;;-4.24;100.00
54038;BME280;39954;48.844;9.726;2023-04-06T01:54:47;96241.66;;;-4.28;100.00
54038;BME280;39954;48.844;9.726;2023-04-06T01:55:56;96245.88;;;-4.28;100.00
54038;BME280;39954;48.844;9.726;2023-04-06T01:57:04;96239.94;;;-4.29;100.00
54038;BME280;39954;48.844;9.726;2023-04-06T01:58:09;96241.66;;;-4.28;100.00
54038;BME280;39954;48.844;9.726;2023-04-06T01:59:18;96241.66;;;-4.28;100.00
54038;BME280;39954;48.844;9.726;2023-04-06T02:00:34;96247.56;;;-4.27;100.00
54038;BME280;39954;48.844;9.726;2023-04-06T02:01:42;96238.25;;;-4.30;100.00
54038;BME280;39954;48.844;9.726;2023-04-06T02:02:51;96240.81;;;-4.28;100.00
54038;BME280;39954;48.844;9.726;2023-04-06T02:03:58;96239.09;;;-4.29;100.00
54038;BME280;39954;48.844;9.726;2023-04-06T02:05:07;96246.72;;;-4.31;100.00
54038;BME280;39954;48.844;9.726;2023-04-06T02:06:18;96248.41;;;-4.33;100.00
54038;BME280;39954;48.844;9.726;2023-04-06T02:07:29;96241.63;;;-4.34;100.00
54038;BME280;39954;48.844;9.726;2023-04-06T02:08:42;96241.63;;;-4.32;100.00
54038;BME280;39954;48.844;9.726;2023-04-06T02:10:02;96240.78;;;-4.33;100.00
54038;BME280;39954;48.844;9.726;2023-04-06T02:11:17;96244.16;;;-4.37;100.00
54038;BME280;39954;48.844;9.726;2023-04-06T02:12:22;96238.22;;;-4.39;100.00
54038;BME280;39954;48.844;9.726;2023-04-06T02:13:30;96245.84;;;-4.42;100.00
54038;BME280;39954;48.844;9.726;2023-04-06T02:14:39;96241.56;;;-4.46;100.00
54038;BME280;39954;48.844;9.726;2023-04-06T02:15:52;96239.88;;;-4.47;100.00
54038;BME280;39954;48.844;9.726;2023-04-06T02:16:58;96242.41;;;-4.50;100.00
54038;BME280;39954;48.844;9.726;2023-04-06T02:18:06;96243.22;;;-4.54;100.00
54038;BME280;39954;48.844;9.726;2023-04-06T02:19:19;96239.88;;;-4.53;100.00
54038;BME280;39954;48.844;9.726;2023-04-06T02:20:26;96237.34;;;-4.53;100.00
54038;BME280;39954;48.844;9.726;2023-04-06T02:21:36;96234.75;;;-4.58;100.00
54038;BME280;39954;48.844;9.726;2023-04-06T02:22:48;96239.81;;;-4.61;100.00
54038;BME280;39954;48.844;9.726;2023-04-06T02:23:55;96238.13;;;-4.63;100.00
54038;BME280;39954;48.844;9.726;2023-04-06T02:25:07;96233.88;;;-4.66;100.00
54038;BME280;39954;48.844;9.726;2023-04-06T02:26:18;96238.13;;;-4.60;100.00
54038;BME280;39954;48.844;9.726;2023-04-06T02:27:28;96239.78;;;-4.65;100.00
54038;BME280;39954;48.844;9.726;2023-04-06T02:28:36;96238.13;;;-4.62;100.00
54038;BME280;39954;48.844;9.726;2023-04-06T02:29:43;96238.13;;;-4.65;100.00
54038;BME280;39954;48.844;9.726;2023-04-06T02:30:47;96229.66;;;-4.65;100.00
54038;BME280;39954;48.844;9.726;2023-04-06T02:31:56;96227.97;;;-4.66;100.00
54038;BME280;39954;48.844;9.726;2023-04-06T02:33:08;96233.88;;;-4.66;100.00
54038;BME280;39954;48.844;9.726;2023-04-06T02:34:16;96233.88;;;-4.66;100.00
54038;BME280;39954;48.844;9.726;2023-04-06T02:35:27;96233.88;;;-4.66;100.00
54038;BME280;39954;48.844;9.726;2023-04-06T02:36:39;96238.97;;;-4.64;100.00
54038;BME280;39954;48.844;9.726;2023-04-06T02:37:49;96228.84;;;-4.61;100.00
54038;BME280;39954;48.844;9.726;2023-04-06T02:39:00;96235.63;;;-4.59;100.00
54038;BME280;39954;48.844;9.726;2023-04-06T02:40:08;96236.47;;;-4.55;100.00
54038;BME280;39954;48.844;9.726;2023-04-06T02:41:16;96235.63;;;-4.54;100.00
54038;BME280;39954;48.844;9.726;2023-04-06T02:42:22;96233.91;;;-4.57;100.00
54038;BME280;39954;48.844;9.726;2023-04-06T02:43:34;96231.38;;;-4.57;100.00
54038;BME280;39954;48.844;9.726;2023-04-06T02:44:41;96230.53;;;-4.57;100.00
54038;BME280;39954;48.844;9.726;2023-04-06T02:45:47;96226.31;;;-4.55;100.00
54038;BME280;39954;48.844;9.726;2023-04-06T02:46:55;96228.84;;;-4.55;100.00
54038;BME280;39954;48.844;9.726;2023-04-06T02:48:27;96228.00;;;-4.56;100.00
54038;BME280;39954;48.844;9.726;2023-04-06T02:49:32;96226.31;;;-4.52;100.00
54038;BME280;39954;48.844;9.726;2023-04-06T02:50:50;96227.16;;;-4.52;100.00
54038;BME280;39954;48.844;9.726;2023-04-06T02:52:00;96226.31;;;-4.52;100.00
54038;BME280;39954;48.844;9.726;2023-04-06T02:53:09;96233.06;;;-4.54;100.00
54038;BME280;39954;48.844;9.726;2023-04-06T02:54:37;96226.31;;;-4.57;100.00
54038;BME280;39954;48.844;9.726;2023-04-06T02:55:50;96227.16;;;-4.59;100.00
54038;BME280;39954;48.844;9.726;2023-04-06T02:57:08;96221.22;;;-4.63;100.00
54038;BME280;39954;48.844;9.726;2023-04-06T02:58:22;96224.59;;;-4.67;100.00
54038;BME280;39954;48.844;9.726;2023-04-06T02:59:30;96217.81;;;-4.66;100.00
54038;BME280;39954;48.844;9.726;2023-04-06T03:00:43;96220.38;;;-4.65;100.00
54038;BME280;39954;48.844;9.726;2023-04-06T03:01:50;96215.31;;;-4.65;100.00
54038;BME280;39954;48.844;9.726;2023-04-06T03:02:58;96214.44;;;-4.65;100.00
54038;BME280;39954;48.844;9.726;2023-04-06T03:04:10;96219.50;;;-4.68;100.00
54038;BME280;39954;48.844;9.726;2023-04-06T03:05:30;96222.88;;;-4.73;100.00
54038;BME280;39954;48.844;9.726;2023-04-06T03:08:17;96216.91;;;-4.79;100.00
54038;BME280;39954;48.844;9.726;2023-04-06T03:09:27;96220.28;;;-4.80;100.00
54038;BME280;39954;48.844;9.726;2023-04-06T03:10:44;96216.91;;;-4.79;100.00
54038;BME280;39954;48.844;9.726;2023-04-06T03:12:01;96216.06;;;-4.80;100.00
54038;BME280;39954;48.844;9.726;2023-04-06T03:13:11;96216.03;;;-4.83;100.00
54038;BME280;39954;48.844;9.726;2023-04-06T03:14:17;96221.13;;;-4.83;100.00
54038;BME280;39954;48.844;9.726;2023-04-06T03:15:34;96218.56;;;-4.83;100.00
54038;BME280;39954;48.844;9.726;2023-04-06T03:16:56;96217.72;;;-4.85;100.00
54038;BME280;39954;48.844;9.726;2023-04-06T03:18:08;96217.72;;;-4.85;100.00
54038;BME280;39954;48.844;9.726;2023-04-06T03:19:19;96216.91;;;-4.81;100.00
54038;BME280;39954;48.844;9.726;2023-04-06T03:20:47;96211.81;;;-4.82;100.00
54038;BME280;39954;48.844;9.726;2023-04-06T03:21:56;96215.19;;;-4.83;100.00
54038;BME280;39954;48.844;9.726;2023-04-06T03:23:08;96224.50;;;-4.84;100.00
54038;BME280;39954;48.844;9.726;2023-04-06T03:24:15;96221.13;;;-4.83;100.00
54038;BME280;39954;48.844;9.726;2023-04-06T03:25:29;96223.63;;;-4.86;100.00
54038;BME280;39954;48.844;9.726;2023-04-06T03:26:42;96229.56;;;-4.87;100.00
54038;BME280;39954;48.844;9.726;2023-04-06T03:27:55;96222.78;;;-4.88;100.00
54038;BME280;39954;48.844;9.726;2023-04-06T03:29:02;96221.09;;;-4.86;100.00
54038;BME280;39954;48.844;9.726;2023-04-06T03:30:10;96220.25;;;-4.86;100.00
54038;BME280;39954;48.844;9.726;2023-04-06T03:31:18;96218.59;;;-4.84;100.00
54038;BME280;39954;48.844;9.726;2023-04-06T03:32:51;96224.50;;;-4.87;100.00
54038;BME280;39954;48.844;9.726;2023-04-06T03:34:09;96225.31;;;-4.85;100.00
54038;BME280;39954;48.844;9.726;2023-04-06T03:35:19;96227.03;;;-4.84;100.00
54038;BME280;39954;48.844;9.726;2023-04-06T03:36:35;96232.09;;;-4.87;100.00
54038;BME280;39954;48.844;9.726;2023-04-06T03:37:45;96226.16;;;-4.87;100.00
54038;BME280;39954;48.844;9.726;2023-04-06T03:38:53;96222.78;;;-4.88;100.00
54038;BME280;39954;48.844;9.726;2023-04-06T03:40:26;96229.53;;;-4.90;100.00
54038;BME280;39954;48.844;9.726;2023-04-06T03:41:41;96231.22;;;-4.90;100.00
54038;BME280;39954;48.844;9.726;2023-04-06T03:43:04;96224.41;;;-4.96;100.00
54038;BME280;39954;48.844;9.726;2023-04-06T03:44:15;96233.75;;;-4.95;100.00
54038;BME280;39954;48.844;9.726;2023-04-06T03:45:24;96230.34;;;-4.94;100.00
54038;BME280;39954;48.844;9.726;2023-04-06T03:46:38;96227.81;;;-4.94;100.00
54038;BME280;39954;48.844;9.726;2023-04-06T03:47:42;96232.03;;;-4.96;100.00
54038;BME280;39954;48.844;9.726;2023-04-06T03:48:52;96232.88;;;-4.97;100.00
54038;BME280;39954;48.844;9.726;2023-04-06T03:50:00;96231.19;;;-4.98;100.00
54038;BME280;39954;48.844;9.726;2023-04-06T03:51:20;96231.16;;;-5.01;100.00
54038;BME280;39954;48.844;9.726;2023-04-06T03:52:28;96233.72;;;-5.01;100.00
54038;BME280;39954;48.844;9.726;2023-04-06T03:53:38;96237.91;;;-4.99;100.00
54038;BME280;39954;48.844;9.726;2023-04-06T03:54:54;96236.25;;;-4.98;100.00
54038;BME280;39954;48.844;9.726;2023-04-06T03:56:00;96243.88;;;-4.98;100.00
54038;BME280;39954;48.844;9.726;2023-04-06T03:57:17;96236.22;;;-5.00;100.00
54038;BME280;39954;48.844;9.726;2023-04-06T03:58:24;96239.59;;;-4.99;100.00
54038;BME280;39954;48.844;9.726;2023-04-06T03:59:41;96231.19;;;-4.97;100.00
54038;BME280;39954;48.844;9.726;2023-04-06T04:00:51;96236.28;;;-4.95;100.00
54038;BME280;39954;48.844;9.726;2023-04-06T04:02:05;96235.44;;;-4.96;100.00
54038;BME280;39954;48.844;9.726;2023-04-06T04:03:20;96236.25;;;-4.93;100.00
54038;BME280;39954;48.844;9.726;2023-04-06T04:04:33;96235.44;;;-4.96;100.00
54038;BME280;39954;48.844;9.726;2023-04-06T04:05:43;96234.56;;;-4.95;100.00
54038;BME280;39954;48.844;9.726;2023-04-06T04:07:03;96237.97;;;-4.94;100.00
54038;BME280;39954;48.844;9.726;2023-04-06T04:08:08;96239.69;;;-4.90;100.00
54038;BME280;39954;48.844;9.726;2023-04-06T04:09:22;96237.97;;;-4.92;100.00
54038;BME280;39954;48.844;9.726;2023-04-06T04:10:33;96236.28;;;-4.92;100.00
54038;BME280;39954;48.844;9.726;2023-04-06T04:11:46;96242.19;;;-4.91;100.00
54038;BME280;39954;48.844;9.726;2023-04-06T04:13:01;96237.97;;;-4.91;100.00
54038;BME280;39954;48.844;9.726;2023-04-06T04:14:11;96241.38;;;-4.89;100.00
54038;BME280;39954;48.844;9.726;2023-04-06T04:15:16;96239.63;;;-4.93;100.00
54038;BME280;39954;48.844;9.726;2023-04-06T04:16:31;96245.56;;;-4.94;100.00
54038;BME280;39954;48.844;9.726;2023-04-06T04:17:50;96241.34;;;-4.95;100.00
54038;BME280;39954;48.844;9.726;2023-04-06T04:18:58;96244.69;;;-4.96;100.00
54038;BME280;39954;48.844;9.726;2023-04-06T04:20:17;96242.97;;;-5.02;100.00
54038;BME280;39954;48.844;9.726;2023-04-06T04:21:32;96246.34;;;-5.03;100.00
54038;BME280;39954;48.844;9.726;2023-04-06T04:22:42;96243.88;;;-4.98;100.00
54038;BME280;39954;48.844;9.726;2023-04-06T04:23:56;96245.50;;;-5.03;100.00
54038;BME280;39954;48.844;9.726;2023-04-06T04:25:18;96247.13;;;-5.10;100.00
54038;BME280;39954;48.844;9.726;2023-04-06T04:26:44;96253.06;;;-5.12;100.00
54038;BME280;39954;48.844;9.726;2023-04-06T04:28:05;96246.28;;;-5.13;100.00
54038;BME280;39954;48.844;9.726;2023-04-06T04:29:41;96245.41;;;-5.20;100.00
54038;BME280;39954;48.844;9.726;2023-04-06T04:30:50;96251.28;;;-5.23;100.00
54038;BME280;39954;48.844;9.726;2023-04-06T04:31:59;96250.44;;;-5.23;100.00
54038;BME280;39954;48.844;9.726;2023-04-06T04:33:26;96250.44;;;-5.23;100.00
54038;BME280;39954;48.844;9.726;2023-04-06T04:35:01;96254.69;;;-5.24;100.00
54038;BME280;39954;48.844;9.726;2023-04-06T04:36:27;96253.81;;;-5.23;100.00
54038;BME280;39954;48.844;9.726;2023-04-06T04:37:50;96247.91;;;-5.22;100.00
54038;BME280;39954;48.844;9.726;2023-04-06T04:39:04;96248.72;;;-5.24;100.00
54038;BME280;39954;48.844;9.726;2023-04-06T04:40:17;96249.56;;;-5.27;100.00
54038;BME280;39954;48.844;9.726;2023-04-06T04:41:43;96246.19;;;-5.24;100.00
54038;BME280;39954;48.844;9.726;2023-04-06T04:43:06;96243.69;;;-5.21;100.00
54038;BME280;39954;48.844;9.726;2023-04-06T04:44:33;96254.69;;;-5.21;100.00
54038;BME280;39954;48.844;9.726;2023-04-06T04:45:54;96253.88;;;-5.18;100.00
54038;BME280;39954;48.844;9.726;2023-04-06T04:47:19;96247.13;;;-5.18;100.00
54038;BME280;39954;48.844;9.726;2023-04-06T04:48:47;96255.53;;;-5.20;100.00
54038;BME280;39954;48.844;9.726;2023-04-06T04:49:57;96255.53;;;-5.19;100.00
54038;BME280;39954;48.844;9.726;2023-04-06T04:51:26;96253.03;;;-5.14;100.00
54038;BME280;39954;48.844;9.726;2023-04-06T04:52:40;96253.88;;;-5.13;100.00
54038;BME280;39954;48.844;9.726;2023-04-06T04:53:49;96262.34;;;-5.11;100.00
54038;BME280;39954;48.844;9.726;2023-04-06T04:55:34;96251.38;;;-5.12;100.00
54038;BME280;39954;48.844;9.726;2023-04-06T04:57:03;96259.81;;;-5.14;100.00
54038;BME280;39954;48.844;9.726;2023-04-06T04:58:45;96253.88;;;-5.18;100.00
54038;BME280;39954;48.844;9.726;2023-04-06T05:00:22;96257.25;;;-5.16;100.00
54038;BME280;39954;48.844;9.726;2023-04-06T05:01:42;96252.19;;;-5.14;100.00
54038;BME280;39954;48.844;9.726;2023-04-06T05:02:58;96257.28;;;-5.11;100.00
54038;BME280;39954;48.844;9.726;2023-04-06T05:04:12;96265.72;;;-5.11;100.00
54038;BME280;39954;48.844;9.726;2023-04-06T05:05:29;96260.63;;;-5.14;100.00
54038;BME280;39954;48.844;9.726;2023-04-06T05:06:36;96258.09;;;-5.14;100.00
54038;BME280;39954;48.844;9.726;2023-04-06T05:08:22;96265.75;;;-5.12;100.00
54038;BME280;39954;48.844;9.726;2023-04-06T05:09:48;96259.81;;;-5.11;100.00
54038;BME280;39954;48.844;9.726;2023-04-06T05:11:05;96263.22;;;-5.09;100.00
54038;BME280;39954;48.844;9.726;2023-04-06T05:12:19;96267.44;;;-5.08;100.00
54038;BME280;39954;48.844;9.726;2023-04-06T05:13:42;96265.78;;;-5.03;100.00
54038;BME280;39954;48.844;9.726;2023-04-06T05:14:57;96266.66;;;-5.00;100.00
54038;BME280;39954;48.844;9.726;2023-04-06T05:16:23;96274.28;;;-4.93;100.00
54038;BME280;39954;48.844;9.726;2023-04-06T05:17:54;96270.09;;;-4.91;100.00
54038;BME280;39954;48.844;9.726;2023-04-06T05:19:07;96272.66;;;-4.90;100.00
54038;BME280;39954;48.844;9.726;2023-04-06T05:20:39;96272.66;;;-4.85;100.00
54038;BME280;39954;48.844;9.726;2023-04-06T05:21:52;96273.50;;;-4.82;100.00
54038;BME280;39954;48.844;9.726;2023-04-06T05:23:14;96271.00;;;-4.80;100.00
54038;BME280;39954;48.844;9.726;2023-04-06T05:24:38;96273.50;;;-4.83;100.00
54038;BME280;39954;48.844;9.726;2023-04-06T05:26:10;96278.56;;;-4.82;100.00
54038;BME280;39954;48.844;9.726;2023-04-06T05:27:30;96280.28;;;-4.81;100.00
54038;BME280;39954;48.844;9.726;2023-04-06T05:28:59;96278.66;;;-4.76;100.00
54038;BME280;39954;48.844;9.726;2023-04-06T05:30:08;96282.84;;;-4.75;100.00
54038;BME280;39954;48.844;9.726;2023-04-06T05:31:38;96281.22;;;-4.69;100.00
54038;BME280;39954;48.844;9.726;2023-04-06T05:33:14;96286.28;;;-4.69;100.00
54038;BME280;39954;48.844;9.726;2023-04-06T05:34:39;96289.66;;;-4.66;100.00
54038;BME280;39954;48.844;9.726;2023-04-06T05:36:01;96285.47;;;-4.61;100.00
54038;BME280;39954;48.844;9.726;2023-04-06T05:37:29;96289.72;;;-4.57;100.00
54038;BME280;39954;48.844;9.726;2023-04-06T05:38:44;96289.75;;;-4.52;100.00
54038;BME280;39954;48.844;9.726;2023-04-06T05:40:06;96286.41;;;-4.48;100.00
54038;BME280;39954;48.844;9.726;2023-04-06T05:41:20;96287.25;;;-4.43;100.00
54038;BME280;39954;48.844;9.726;2023-04-06T05:42:36;96286.44;;;-4.37;100.00
54038;BME280;39954;48.844;9.726;2023-04-06T05:44:16;96281.38;;;-4.33;100.00
54038;BME280;39954;48.844;9.726;2023-04-06T05:45:49;96281.41;;;-4.27;100.00
54038;BME280;39954;48.844;9.726;2023-04-06T05:47:16;96287.38;;;-4.17;100.00
54038;BME280;39954;48.844;9.726;2023-04-06T05:48:35;96291.63;;;-4.10;100.00
54038;BME280;39954;48.844;9.726;2023-04-06T05:49:45;96288.25;;;-4.04;100.00
54038;BME280;39954;48.844;9.726;2023-04-06T05:51:05;96294.19;;;-3.99;100.00
54038;BME280;39954;48.844;9.726;2023-04-06T05:52:20;96289.13;;;-3.93;100.00
54038;BME280;39954;48.844;9.726;2023-04-06T05:53:52;96295.91;;;-3.84;100.00
54038;BME280;39954;48.844;9.726;2023-04-06T05:55:12;96301.88;;;-3.80;100.00
54038;BME280;39954;48.844;9.726;2023-04-06T05:56:29;96286.66;;;-3.77;100.00
54038;BME280;39954;48.844;9.726;2023-04-06T05:57:42;96288.34;;;-3.73;100.00
54038;BME280;39954;48.844;9.726;2023-04-06T05:58:54;96289.22;;;-3.67;100.00
54038;BME280;39954;48.844;9.726;2023-04-06T06:00:21;96295.13;;;-3.63;100.00
54038;BME280;39954;48.844;9.726;2023-04-06T06:01:42;96292.59;;;-3.60;100.00
54038;BME280;39954;48.844;9.726;2023-04-06T06:02:53;96296.00;;;-3.55;100.00
54038;BME280;39954;48.844;9.726;2023-04-06T06:04:10;96296.84;;;-3.51;100.00
54038;BME280;39954;48.844;9.726;2023-04-06T06:05:39;96297.69;;;-3.45;100.00
54038;BME280;39954;48.844;9.726;2023-04-06T06:07:07;96303.66;;;-3.38;100.00
54038;BME280;39954;48.844;9.726;2023-04-06T06:08:47;96299.41;;;-3.31;100.00
54038;BME280;39954;48.844;9.726;2023-04-06T06:10:07;96301.13;;;-3.27;100.00
54038;BME280;39954;48.844;9.726;2023-04-06T06:11:31;96297.72;;;-3.23;100.00
54038;BME280;39954;48.844;9.726;2023-04-06T06:12:56;96305.34;;;-3.17;100.00
54038;BME280;39954;48.844;9.726;2023-04-06T06:14:28;96303.66;;;-3.10;100.00
54038;BME280;39954;48.844;9.726;2023-04-06T06:16:14;96296.88;;;-3.04;100.00
54038;BME280;39954;48.844;9.726;2023-04-06T06:18:06;96298.56;;;-2.97;100.00
54038;BME280;39954;48.844;9.726;2023-04-06T06:20:04;96295.16;;;-2.88;100.00
54038;BME280;39954;48.844;9.726;2023-04-06T06:21:30;96294.31;;;-2.79;100.00
54038;BME280;39954;48.844;9.726;2023-04-06T06:23:37;96296.00;;;-2.66;100.00
54038;BME280;39954;48.844;9.726;2023-04-06T06:25:13;96301.88;;;-2.58;100.00
54038;BME280;39954;48.844;9.726;2023-04-06T06:26:54;96303.56;;;-2.48;100.00
54038;BME280;39954;48.844;9.726;2023-04-06T06:30:12;96297.56;;;-2.28;100.00
54038;BME280;39954;48.844;9.726;2023-04-06T06:32:07;96294.13;;;-2.15;100.00
54038;BME280;39954;48.844;9.726;2023-04-06T06:34:08;96302.56;;;-2.00;100.00
54038;BME280;39954;48.844;9.726;2023-04-06T06:36:41;96298.25;;;-1.85;100.00
54038;BME280;39954;48.844;9.726;2023-04-06T06:37:54;96305.78;;;-1.65;100.00
54038;BME280;39954;48.844;9.726;2023-04-06T06:39:30;96298.09;;;-1.59;100.00
54038;BME280;39954;48.844;9.726;2023-04-06T06:42:43;96298.72;;;-1.23;100.00
54038;BME280;39954;48.844;9.726;2023-04-06T06:44:44;96292.59;;;-1.00;100.00
54038;BME280;39954;48.844;9.726;2023-04-06T06:49:25;96301.56;;;-0.59;100.00